createdAt,value
2019-04-16T00:02:32.976Z,12.65
2019-04-16T00:05:41.511Z,9.63
2019-04-16T00:08:54.120Z,11.15
2019-04-16T00:12:22.827Z,8.37
2019-04-16T00:15:26.136Z,11.60
2019-04-16T00:18:29.530Z,10.18
2019-04-16T00:21:55.306Z,10.13
2019-04-16T00:24:58.761Z,12.67
2019-04-16T00:28:02.070Z,9.97
2019-04-16T00:31:05.764Z,15.23
2019-04-16T00:34:13.718Z,12.80
2019-04-16T00:37:14.544Z,16.13
2019-04-16T00:40:18.011Z,11.93
2019-04-16T00:43:21.410Z,13.40
2019-04-16T00:46:24.709Z,9.17
2019-04-16T00:49:28.141Z,10.50
2019-04-16T00:52:31.524Z,14.27
2019-04-16T00:55:34.809Z,10.40
2019-04-16T00:58:38.312Z,11.83
2019-04-16T01:01:42.851Z,10.33
2019-04-16T01:04:48.206Z,9.30
2019-04-16T01:07:51.579Z,11.80
2019-04-16T01:10:54.992Z,15.67
2019-04-16T01:13:58.274Z,10.43
2019-04-16T01:17:04.852Z,12.67
2019-04-16T01:20:11.642Z,14.60
2019-04-16T01:23:17.600Z,16.97
2019-04-16T01:26:18.329Z,11.07
2019-04-16T01:29:21.827Z,11.33
2019-04-16T01:32:35.778Z,11.50
2019-04-16T01:35:58.548Z,17.37
2019-04-16T01:39:16.097Z,15.87
2019-04-16T01:42:11.649Z,12.57
2019-04-16T01:45:15.113Z,10.10
2019-04-16T01:48:18.685Z,12.80
2019-04-16T01:51:21.919Z,12.53
2019-04-16T01:54:25.291Z,13.10
2019-04-16T01:57:30.712Z,13.77
2019-04-16T02:00:36.480Z,15.33
2019-04-16T02:03:39.381Z,10.37
2019-04-16T02:06:42.832Z,13.37
2019-04-16T02:09:46.165Z,13.47
2019-04-16T02:12:49.727Z,15.40
2019-04-16T02:15:53.528Z,14.13
2019-04-16T02:19:00.828Z,17.57
2019-04-16T02:22:02.778Z,14.53
2019-04-16T02:25:06.354Z,15.13
2019-04-16T02:28:09.795Z,14.17
2019-04-16T02:31:15.678Z,17.80
2019-04-16T02:34:18.290Z,12.50
2019-04-16T02:37:21.729Z,13.20
2019-04-16T02:40:25.086Z,11.67
2019-04-16T02:43:28.627Z,12.37
2019-04-16T02:46:32.746Z,16.77
2019-04-16T02:49:36.106Z,14.13
2019-04-16T02:52:59.467Z,11.60
2019-04-16T02:56:18.786Z,13.37
2019-04-16T02:59:29.392Z,14.80
2019-04-16T03:02:54.884Z,13.93
2019-04-16T03:06:00.654Z,13.10
2019-04-16T03:09:08.548Z,14.03
2019-04-16T03:12:10.276Z,13.27
2019-04-16T03:15:16.259Z,13.70
2019-04-16T03:18:22.043Z,15.33
2019-04-16T03:21:27.397Z,10.77
2019-04-16T03:24:30.601Z,15.87
2019-04-16T03:27:33.724Z,14.73
2019-04-16T03:30:42.082Z,13.17
2019-04-16T03:33:48.391Z,16.40
2019-04-16T03:36:46.962Z,17.90
2019-04-16T03:39:50.059Z,11.97
2019-04-16T03:42:53.219Z,18.73
2019-04-16T03:45:56.339Z,13.97
2019-04-16T03:48:59.744Z,13.87
2019-04-16T03:52:04.921Z,13.00
2019-04-16T03:55:07.971Z,16.20
2019-04-16T03:58:11.126Z,14.57
2019-04-16T04:01:15.448Z,15.40
2019-04-16T04:04:19.101Z,14.97
2019-04-16T04:07:22.305Z,16.93
2019-04-16T04:10:31.013Z,19.90
2019-04-16T04:13:31.377Z,16.13
2019-04-16T04:16:34.644Z,15.30
2019-04-16T04:19:37.756Z,15.97
2019-04-16T04:22:40.923Z,14.90
2019-04-16T04:25:44.024Z,21.07
2019-04-16T04:28:48.670Z,13.03
2019-04-16T04:31:52.163Z,15.13
2019-04-16T04:34:55.273Z,15.57
2019-04-16T04:38:00.778Z,16.90
2019-04-16T04:41:03.585Z,15.27
2019-04-16T04:44:06.776Z,17.47
2019-04-16T04:47:09.972Z,15.63
2019-04-16T04:50:13.165Z,14.23
2019-04-16T04:53:19.216Z,19.23
2019-04-16T04:56:21.412Z,13.17
2019-04-16T04:59:24.527Z,15.90
2019-04-16T05:02:28.740Z,12.67
2019-04-16T05:05:42.479Z,12.27
2019-04-16T05:08:45.543Z,14.10
2019-04-16T05:11:49.596Z,19.20
2019-04-16T05:14:57.031Z,14.97
2019-04-16T05:17:59.632Z,14.40
2019-04-16T05:21:02.941Z,14.60
2019-04-16T05:24:06.029Z,16.73
2019-04-16T05:27:09.427Z,15.73
2019-04-16T05:30:17.450Z,15.80
2019-04-16T05:33:17.863Z,12.73
2019-04-16T05:36:24.184Z,11.60
2019-04-16T05:39:28.572Z,14.80
2019-04-16T05:42:31.791Z,15.00
2019-04-16T05:45:37.644Z,13.80
2019-04-16T05:48:39.790Z,14.30
2019-04-16T05:51:43.119Z,15.93
2019-04-16T05:55:05.659Z,14.77
2019-04-16T05:58:09.948Z,18.30
2019-04-16T06:01:42.466Z,14.77
2019-04-16T06:04:47.288Z,15.40
2019-04-16T06:07:50.567Z,13.33
2019-04-16T06:10:53.705Z,15.03
2019-04-16T06:14:04.724Z,14.00
2019-04-16T06:17:18.304Z,12.33
2019-04-16T06:20:38.346Z,12.13
2019-04-16T06:24:03.082Z,14.30
2019-04-16T06:27:15.000Z,11.73
2019-04-16T06:30:37.645Z,14.33
2019-04-16T06:34:03.359Z,13.32
2019-04-16T06:37:21.792Z,10.05
2019-04-16T06:40:41.929Z,14.60
2019-04-16T06:43:48.852Z,12.80
2019-04-16T06:47:20.295Z,12.85
2019-04-16T06:50:40.980Z,12.07
2019-04-16T06:54:02.123Z,15.05
2019-04-16T06:57:43.831Z,9.18
2019-04-16T07:01:07.135Z,13.75
2019-04-16T07:04:30.832Z,12.53
2019-04-16T07:07:59.541Z,15.53
2019-04-16T07:11:03.297Z,20.92
2019-04-16T07:14:06.388Z,16.40
2019-04-16T07:17:09.716Z,14.73
2019-04-16T07:20:14.237Z,11.43
2019-04-16T07:23:17.764Z,10.25
2019-04-16T07:26:21.322Z,13.62
2019-04-16T07:29:32.773Z,11.95
2019-04-16T07:33:00.671Z,15.95
2019-04-16T07:36:28.377Z,16.15
2019-04-16T07:39:40.549Z,15.90
2019-04-16T07:43:01.773Z,13.28
2019-04-16T07:46:23.313Z,17.60
2019-04-16T07:49:59.855Z,15.45
2019-04-16T07:53:34.432Z,12.65
2019-04-16T07:56:39.262Z,14.87
2019-04-16T07:59:43.560Z,13.22
2019-04-16T08:02:46.705Z,17.20
2019-04-16T08:05:49.939Z,14.65
2019-04-16T08:08:57.137Z,13.30
2019-04-16T08:11:59.125Z,19.30
2019-04-16T08:15:13.282Z,17.42
2019-04-16T08:18:07.573Z,12.82
2019-04-16T08:21:12.404Z,14.83
2019-04-16T08:24:24.404Z,13.45
2019-04-16T08:27:25.321Z,18.20
2019-04-16T08:30:34.097Z,13.48
2019-04-16T08:33:33.787Z,13.15
2019-04-16T08:36:36.963Z,16.57
2019-04-16T08:39:40.573Z,12.25
2019-04-16T08:42:45.145Z,12.98
2019-04-16T08:45:48.380Z,21.02
2019-04-16T08:48:54.263Z,15.10
2019-04-16T08:51:56.420Z,14.43
2019-04-16T08:54:59.622Z,14.07
2019-04-16T08:58:06.069Z,15.63
2019-04-16T09:01:09.244Z,11.12
2019-04-16T09:04:12.513Z,16.20
2019-04-16T09:07:33.732Z,12.45
2019-04-16T09:10:37.080Z,14.15
2019-04-16T09:13:48.188Z,12.90
2019-04-16T09:16:59.432Z,16.82
2019-04-16T09:20:13.751Z,12.40
2019-04-16T09:23:17.114Z,12.37
2019-04-16T09:26:34.082Z,12.05
2019-04-16T09:29:56.103Z,15.43
2019-04-16T09:33:22.600Z,9.85
2019-04-16T09:36:43.648Z,11.05
2019-04-16T09:39:59.331Z,14.30
2019-04-16T09:43:16.085Z,11.38
2019-04-16T09:46:11.121Z,12.53
2019-04-16T09:49:14.745Z,9.90
2019-04-16T09:52:19.751Z,12.15
2019-04-16T09:55:23.096Z,9.48
2019-04-16T09:58:26.486Z,13.05
2019-04-16T10:01:38.536Z,13.32
2019-04-16T10:04:41.759Z,11.20
2019-04-16T10:07:46.032Z,14.80
2019-04-16T10:10:49.296Z,8.88
2019-04-16T10:13:52.492Z,8.20
2019-04-16T10:16:55.793Z,10.55
2019-04-16T10:19:59.089Z,10.00
2019-04-16T10:23:05.657Z,6.83
2019-04-16T10:26:10.190Z,7.53
2019-04-16T10:29:15.212Z,7.53
2019-04-16T10:32:18.746Z,10.30
2019-04-16T10:35:22.235Z,10.35
2019-04-16T10:38:56.688Z,7.75
2019-04-16T10:42:18.004Z,13.83
2019-04-16T10:45:47.010Z,8.08
2019-04-16T10:48:59.404Z,9.30
2019-04-16T10:52:30.834Z,10.85
2019-04-16T10:55:51.992Z,8.25
2019-04-16T10:59:32.868Z,13.40
2019-04-16T11:02:48.384Z,8.30
2019-04-16T11:06:20.010Z,9.70
2019-04-16T11:09:23.252Z,10.38
2019-04-16T11:12:26.443Z,12.05
2019-04-16T11:15:29.749Z,10.15
2019-04-16T11:18:32.918Z,12.20
2019-04-16T11:21:36.177Z,19.17
2019-04-16T11:24:39.459Z,8.48
2019-04-16T11:27:42.741Z,10.28
2019-04-16T11:30:48.855Z,10.30
2019-04-16T11:33:52.300Z,12.47
2019-04-16T11:36:58.290Z,11.22
2019-04-16T11:40:00.531Z,11.57
2019-04-16T11:43:03.832Z,13.15
2019-04-16T11:46:07.208Z,16.97
2019-04-16T11:49:10.461Z,12.13
2019-04-16T11:52:13.562Z,10.98
2019-04-16T11:55:16.793Z,8.98
2019-04-16T11:58:45.404Z,17.27
2019-04-16T12:02:14.991Z,11.53
2019-04-16T12:05:37.596Z,12.40
2019-04-16T12:09:08.988Z,7.83
2019-04-16T12:12:21.546Z,10.60
2019-04-16T12:15:29.168Z,9.23
2019-04-16T12:18:51.823Z,10.40
2019-04-16T12:22:29.635Z,14.03
2019-04-16T12:25:39.370Z,13.58
2019-04-16T12:29:02.174Z,7.30
2019-04-16T12:32:26.843Z,10.30
2019-04-16T12:35:40.621Z,7.83
2019-04-16T12:38:58.377Z,10.48
2019-04-16T12:42:08.390Z,7.83
2019-04-16T12:45:37.204Z,11.12
2019-04-16T12:48:58.519Z,7.58
2019-04-16T12:52:22.415Z,12.40
2019-04-16T12:55:45.538Z,8.15
2019-04-16T12:59:22.090Z,9.20
2019-04-16T13:02:53.103Z,6.85
2019-04-16T13:06:26.995Z,7.95
2019-04-16T13:09:47.433Z,8.20
2019-04-16T13:13:02.247Z,7.25
2019-04-16T13:16:18.120Z,8.25
2019-04-16T13:19:46.537Z,8.83
2019-04-16T13:22:52.740Z,8.15
2019-04-16T13:26:05.443Z,6.75
2019-04-16T13:29:14.984Z,8.20
2019-04-16T13:32:17.877Z,11.18
2019-04-16T13:35:21.032Z,11.45
2019-04-16T13:38:25.289Z,9.03
2019-04-16T13:41:28.640Z,10.78
2019-04-16T13:44:37.652Z,11.75
2019-04-16T13:47:47.376Z,9.88
2019-04-16T13:50:53.999Z,8.63
2019-04-16T13:54:22.391Z,10.58
2019-04-16T13:57:26.043Z,9.53
2019-04-16T14:00:37.979Z,8.95
2019-04-16T14:03:41.343Z,10.88
2019-04-16T14:06:46.233Z,11.00
2019-04-16T14:09:49.518Z,10.55
2019-04-16T14:12:52.675Z,10.95
2019-04-16T14:15:56.001Z,9.93
2019-04-16T14:19:02.059Z,12.82
2019-04-16T14:22:04.208Z,9.18
2019-04-16T14:25:07.844Z,11.63
2019-04-16T14:28:11.003Z,10.58
2019-04-16T14:31:16.913Z,12.10
2019-04-16T14:34:29.923Z,9.55
2019-04-16T14:37:33.189Z,14.45
2019-04-16T14:40:39.724Z,9.88
2019-04-16T14:43:44.167Z,12.20
2019-04-16T14:46:47.490Z,13.18
2019-04-16T14:49:51.110Z,13.10
2019-04-16T14:52:54.598Z,12.40
2019-04-16T14:56:05.127Z,12.00
2019-04-16T14:59:35.171Z,10.50
2019-04-16T15:02:52.299Z,11.88
2019-04-16T15:06:09.459Z,9.23
2019-04-16T15:09:43.852Z,11.48
2019-04-16T15:12:54.528Z,28.95
2019-04-16T15:16:22.163Z,13.43
2019-04-16T15:19:30.713Z,19.67
2019-04-16T15:22:47.631Z,12.88
2019-04-16T15:26:08.063Z,12.90
2019-04-16T15:29:31.401Z,11.83
2019-04-16T15:32:52.371Z,13.40
2019-04-16T15:35:59.175Z,18.90
2019-04-16T15:39:18.491Z,14.05
2019-04-16T15:42:38.787Z,13.13
2019-04-16T15:45:54.649Z,15.90
2019-04-16T15:49:08.332Z,13.43
2019-04-16T15:52:46.681Z,16.77
2019-04-16T15:56:09.800Z,16.07
2019-04-16T15:59:38.400Z,11.10
2019-04-16T16:02:59.661Z,14.83
2019-04-16T16:06:16.937Z,12.20
2019-04-16T16:09:25.251Z,13.18
2019-04-16T16:12:30.148Z,12.23
2019-04-16T16:15:33.491Z,12.45
2019-04-16T16:18:38.809Z,18.65
2019-04-16T16:21:42.207Z,12.53
2019-04-16T16:24:45.427Z,16.60
2019-04-16T16:27:48.488Z,17.90
2019-04-16T16:30:51.616Z,16.87
2019-04-16T16:33:54.804Z,13.50
2019-04-16T16:36:57.967Z,14.78
2019-04-16T16:40:01.195Z,12.73
2019-04-16T16:43:07.905Z,20.10
2019-04-16T16:46:22.096Z,14.73
2019-04-16T16:49:25.328Z,15.98
2019-04-16T16:53:06.155Z,16.77
2019-04-16T16:56:24.331Z,19.80
2019-04-16T16:59:40.751Z,15.00
2019-04-16T17:02:49.712Z,12.78
2019-04-16T17:05:53.037Z,11.80
2019-04-16T17:08:57.330Z,16.42
2019-04-16T17:12:00.528Z,13.68
2019-04-16T17:15:07.888Z,13.38
2019-04-16T17:18:09.166Z,17.60
2019-04-16T17:21:12.712Z,17.55
2019-04-16T17:24:15.869Z,13.22
2019-04-16T17:27:20.185Z,16.60
2019-04-16T17:30:23.413Z,23.77
2019-04-16T17:33:26.472Z,14.75
2019-04-16T17:36:29.672Z,15.83
2019-04-16T17:39:48.403Z,17.57
2019-04-16T17:42:53.764Z,15.25
2019-04-16T17:46:38.420Z,13.75
2019-04-16T17:49:50.233Z,18.62
2019-04-16T17:53:27.657Z,13.80
2019-04-16T17:56:46.836Z,17.82
2019-04-16T18:00:08.023Z,17.52
2019-04-16T18:03:34.368Z,18.00
2019-04-16T18:06:56.344Z,12.15
2019-04-16T18:10:10.036Z,15.58
2019-04-16T18:13:31.913Z,14.47
2019-04-16T18:16:44.329Z,17.65
2019-04-16T18:20:15.840Z,13.40
2019-04-16T18:23:27.729Z,14.03
2019-04-16T18:26:40.496Z,20.85
2019-04-16T18:29:55.528Z,19.17
2019-04-16T18:33:07.546Z,17.52
2019-04-16T18:36:20.432Z,15.50
2019-04-16T18:39:41.248Z,15.72
2019-04-16T18:42:57.152Z,14.78
2019-04-16T18:46:35.005Z,14.85
2019-04-16T18:49:38.847Z,15.32
2019-04-16T18:52:42.424Z,15.70
2019-04-16T18:55:45.679Z,18.00
2019-04-16T18:58:48.912Z,23.25
2019-04-16T19:01:56.160Z,20.45
2019-04-16T19:04:59.360Z,23.18
2019-04-16T19:08:02.705Z,25.00
2019-04-16T19:11:07.617Z,21.42
2019-04-16T19:14:13.199Z,21.12
2019-04-16T19:17:17.045Z,20.72
2019-04-16T19:20:21.480Z,26.40
2019-04-16T19:23:24.600Z,20.88
2019-04-16T19:26:30.204Z,24.18
2019-04-16T19:29:32.810Z,29.18
2019-04-16T19:32:35.999Z,28.87
2019-04-16T19:35:39.299Z,25.72
2019-04-16T19:38:42.429Z,31.05
2019-04-16T19:41:45.692Z,29.67
2019-04-16T19:44:49.204Z,25.62
2019-04-16T19:47:52.801Z,25.75
2019-04-16T19:50:59.705Z,23.07
2019-04-16T19:54:03.633Z,29.10
2019-04-16T19:57:07.706Z,22.42
2019-04-16T20:00:12.479Z,20.20
2019-04-16T20:07:50.343Z,21.95
2019-04-16T20:10:54.536Z,24.77
2019-04-16T20:14:07.216Z,18.42
2019-04-16T20:17:11.044Z,17.62
2019-04-16T20:20:14.779Z,14.68
2019-04-16T20:23:20.846Z,20.92
2019-04-16T20:26:25.346Z,17.98
2019-04-16T20:29:29.543Z,20.85
2019-04-16T20:32:34.207Z,19.52
2019-04-16T20:35:38.827Z,26.68
2019-04-16T20:38:43.084Z,30.43
2019-04-16T20:41:52.849Z,22.25
2019-04-16T20:44:54.617Z,20.15
2019-04-16T20:47:59.099Z,16.87
2019-04-16T20:51:03.277Z,17.67
2019-04-16T20:54:12.171Z,19.17
2019-04-16T20:57:13.196Z,17.55
2019-04-16T21:00:22.300Z,16.82
2019-04-16T21:03:26.487Z,15.05
2019-04-16T21:06:30.245Z,16.57
2019-04-16T21:09:34.347Z,18.62
2019-04-16T21:12:38.743Z,20.85
2019-04-16T21:15:42.673Z,19.17
2019-04-16T21:18:46.886Z,17.30
2019-04-16T21:21:55.104Z,21.00
2019-04-16T21:25:00.012Z,21.17
2019-04-16T21:28:14.820Z,18.32
2019-04-16T21:31:24.490Z,19.70
2019-04-16T21:34:43.891Z,20.00
2019-04-16T21:38:04.292Z,14.05
2019-04-16T21:41:07.604Z,17.45
2019-04-16T21:44:12.957Z,18.87
2019-04-16T21:52:09.259Z,19.37
2019-04-16T21:55:12.874Z,18.23
2019-04-16T21:58:17.746Z,17.70
2019-04-16T22:01:32.728Z,20.10
2019-04-16T22:08:14.608Z,30.20
2019-04-16T22:11:17.843Z,19.23
2019-04-16T22:14:22.253Z,18.15
2019-04-16T22:17:26.386Z,22.77
2019-04-16T22:20:31.740Z,16.77
2019-04-16T22:23:34.657Z,19.73
2019-04-16T22:26:37.920Z,17.30
2019-04-16T22:29:41.049Z,19.70
2019-04-16T22:32:44.208Z,21.80
2019-04-16T22:35:48.615Z,19.37
2019-04-16T22:38:58.109Z,20.65
2019-04-16T22:42:07.062Z,18.47
2019-04-16T22:45:32.448Z,19.90
2019-04-16T22:48:35.827Z,17.87
2019-04-16T22:51:39.779Z,19.25
2019-04-16T22:54:44.100Z,19.02
2019-04-16T22:57:47.348Z,15.65
2019-04-16T23:00:52.816Z,14.73
2019-04-16T23:03:56.072Z,14.68
2019-04-16T23:07:00.593Z,20.00
2019-04-16T23:10:04.227Z,16.93
2019-04-16T23:17:23.180Z,16.97
2019-04-16T23:20:29.676Z,17.73
2019-04-16T23:23:31.423Z,23.10
2019-04-16T23:26:34.692Z,21.05
2019-04-16T23:29:37.812Z,17.82
2019-04-16T23:32:41.257Z,20.62
2019-04-16T23:35:44.647Z,17.50
2019-04-16T23:38:47.911Z,21.12
2019-04-16T23:41:51.043Z,18.97
2019-04-16T23:45:16.608Z,17.80
2019-04-16T23:48:47.801Z,12.03
2019-04-16T23:52:03.071Z,15.80
2019-04-16T23:55:16.319Z,17.57
2019-04-16T23:58:28.142Z,15.25
